sensor_id;sensor_type;location;lat;lon;timestamp;temperature;humidity
40932;DHT22;36257;46.052;12.540;2023-07-31T00:01:53;22.30;86.30
40932;DHT22;36257;46.052;12.540;2023-07-31T00:04:19;22.40;86.40
40932;DHT22;36257;46.052;12.540;2023-07-31T00:06:44;22.40;85.80
40932;DHT22;36257;46.052;12.540;2023-07-31T00:09:10;22.50;85.90
40932;DHT22;36257;46.052;12.540;2023-07-31T00:11:36;22.40;85.70
40932;DHT22;36257;46.052;12.540;2023-07-31T00:14:02;22.40;86.00
40932;DHT22;36257;46.052;12.540;2023-07-31T00:16:28;22.40;85.80
40932;DHT22;36257;46.052;12.540;2023-07-31T00:18:53;22.40;86.10
40932;DHT22;36257;46.052;12.540;2023-07-31T00:21:19;22.40;86.20
40932;DHT22;36257;46.052;12.540;2023-07-31T00:23:45;22.40;86.60
40932;DHT22;36257;46.052;12.540;2023-07-31T00:26:10;22.30;87.20
40932;DHT22;36257;46.052;12.540;2023-07-31T00:28:36;22.30;86.70
40932;DHT22;36257;46.052;12.540;2023-07-31T00:31:02;22.30;85.70
40932;DHT22;36257;46.052;12.540;2023-07-31T00:33:30;22.40;85.50
40932;DHT22;36257;46.052;12.540;2023-07-31T00:35:56;22.40;85.40
40932;DHT22;36257;46.052;12.540;2023-07-31T00:38:21;22.40;85.40
40932;DHT22;36257;46.052;12.540;2023-07-31T00:40:47;22.40;85.70
40932;DHT22;36257;46.052;12.540;2023-07-31T00:43:13;22.40;86.90
40932;DHT22;36257;46.052;12.540;2023-07-31T00:45:38;22.30;87.50
40932;DHT22;36257;46.052;12.540;2023-07-31T00:48:05;22.30;87.00
40932;DHT22;36257;46.052;12.540;2023-07-31T00:50:31;22.20;86.60
40932;DHT22;36257;46.052;12.540;2023-07-31T00:52:58;22.30;86.60
40932;DHT22;36257;46.052;12.540;2023-07-31T00:55:24;22.30;86.50
40932;DHT22;36257;46.052;12.540;2023-07-31T00:57:50;22.30;86.40
40932;DHT22;36257;46.052;12.540;2023-07-31T01:00:18;22.30;86.40
40932;DHT22;36257;46.052;12.540;2023-07-31T01:02:44;22.40;85.70
40932;DHT22;36257;46.052;12.540;2023-07-31T01:05:09;22.40;85.50
40932;DHT22;36257;46.052;12.540;2023-07-31T01:07:46;22.40;85.50
40932;DHT22;36257;46.052;12.540;2023-07-31T01:10:26;22.40;85.40
40932;DHT22;36257;46.052;12.540;2023-07-31T01:12:53;22.50;85.20
40932;DHT22;36257;46.052;12.540;2023-07-31T01:15:21;22.50;85.30
40932;DHT22;36257;46.052;12.540;2023-07-31T01:17:47;22.50;85.40
40932;DHT22;36257;46.052;12.540;2023-07-31T01:20:18;22.50;85.30
40932;DHT22;36257;46.052;12.540;2023-07-31T01:25:59;22.50;86.10
40932;DHT22;36257;46.052;12.540;2023-07-31T01:28:40;22.40;86.40
40932;DHT22;36257;46.052;12.540;2023-07-31T01:31:14;22.50;86.50
40932;DHT22;36257;46.052;12.540;2023-07-31T01:33:40;22.40;87.00
40932;DHT22;36257;46.052;12.540;2023-07-31T01:36:06;22.40;87.00
40932;DHT22;36257;46.052;12.540;2023-07-31T01:38:33;22.30;87.10
40932;DHT22;36257;46.052;12.540;2023-07-31T01:40:58;22.30;87.60
40932;DHT22;36257;46.052;12.540;2023-07-31T01:43:24;22.30;87.20
40932;DHT22;36257;46.052;12.540;2023-07-31T01:45:50;22.30;87.30
40932;DHT22;36257;46.052;12.540;2023-07-31T01:48:15;22.30;87.50
40932;DHT22;36257;46.052;12.540;2023-07-31T01:50:41;22.20;87.80
40932;DHT22;36257;46.052;12.540;2023-07-31T01:53:07;22.30;87.90
40932;DHT22;36257;46.052;12.540;2023-07-31T01:55:32;22.20;88.10
40932;DHT22;36257;46.052;12.540;2023-07-31T01:57:58;22.30;88.10
40932;DHT22;36257;46.052;12.540;2023-07-31T02:00:23;22.30;88.30
40932;DHT22;36257;46.052;12.540;2023-07-31T02:02:49;22.20;88.50
40932;DHT22;36257;46.052;12.540;2023-07-31T02:05:15;22.20;88.70
40932;DHT22;36257;46.052;12.540;2023-07-31T02:07:40;22.20;89.10
40932;DHT22;36257;46.052;12.540;2023-07-31T02:10:06;22.20;89.00
40932;DHT22;36257;46.052;12.540;2023-07-31T02:12:32;22.10;89.10
40932;DHT22;36257;46.052;12.540;2023-07-31T02:14:59;22.10;89.30
40932;DHT22;36257;46.052;12.540;2023-07-31T02:17:24;22.10;89.10
40932;DHT22;36257;46.052;12.540;2023-07-31T02:19:50;22.00;89.20
40932;DHT22;36257;46.052;12.540;2023-07-31T02:22:16;22.00;89.50
40932;DHT22;36257;46.052;12.540;2023-07-31T02:24:41;22.00;89.40
40932;DHT22;36257;46.052;12.540;2023-07-31T02:27:07;22.00;89.50
40932;DHT22;36257;46.052;12.540;2023-07-31T02:29:32;22.00;89.70
40932;DHT22;36257;46.052;12.540;2023-07-31T02:31:58;21.90;90.10
40932;DHT22;36257;46.052;12.540;2023-07-31T02:34:24;21.90;90.70
40932;DHT22;36257;46.052;12.540;2023-07-31T02:36:49;21.80;90.40
40932;DHT22;36257;46.052;12.540;2023-07-31T02:39:15;21.90;90.40
40932;DHT22;36257;46.052;12.540;2023-07-31T02:41:40;21.90;90.10
40932;DHT22;36257;46.052;12.540;2023-07-31T02:44:06;22.00;89.70
40932;DHT22;36257;46.052;12.540;2023-07-31T02:46:32;22.00;89.80
40932;DHT22;36257;46.052;12.540;2023-07-31T02:48:57;21.90;89.80
40932;DHT22;36257;46.052;12.540;2023-07-31T02:51:23;22.00;89.50
40932;DHT22;36257;46.052;12.540;2023-07-31T02:53:48;22.00;89.50
40932;DHT22;36257;46.052;12.540;2023-07-31T02:56:15;22.00;89.50
40932;DHT22;36257;46.052;12.540;2023-07-31T02:58:40;22.00;90.10
40932;DHT22;36257;46.052;12.540;2023-07-31T03:01:06;21.90;90.30
40932;DHT22;36257;46.052;12.540;2023-07-31T03:03:32;21.90;90.50
40932;DHT22;36257;46.052;12.540;2023-07-31T03:05:57;21.90;90.40
40932;DHT22;36257;46.052;12.540;2023-07-31T03:08:23;22.00;89.80
40932;DHT22;36257;46.052;12.540;2023-07-31T03:10:48;21.90;90.10
40932;DHT22;36257;46.052;12.540;2023-07-31T03:13:14;21.90;90.20
40932;DHT22;36257;46.052;12.540;2023-07-31T03:15:42;21.90;90.30
40932;DHT22;36257;46.052;12.540;2023-07-31T03:18:08;21.90;90.20
40932;DHT22;36257;46.052;12.540;2023-07-31T03:20:34;21.90;90.20
40932;DHT22;36257;46.052;12.540;2023-07-31T03:23:00;21.90;90.10
40932;DHT22;36257;46.052;12.540;2023-07-31T03:25:25;22.00;89.20
40932;DHT22;36257;46.052;12.540;2023-07-31T03:27:51;22.10;88.90
40932;DHT22;36257;46.052;12.540;2023-07-31T03:30:17;22.10;88.40
40932;DHT22;36257;46.052;12.540;2023-07-31T03:32:42;22.10;88.20
40932;DHT22;36257;46.052;12.540;2023-07-31T03:35:08;22.10;88.20
40932;DHT22;36257;46.052;12.540;2023-07-31T03:37:34;22.20;87.90
40932;DHT22;36257;46.052;12.540;2023-07-31T03:39:59;22.20;88.10
40932;DHT22;36257;46.052;12.540;2023-07-31T03:42:25;22.20;88.80
40932;DHT22;36257;46.052;12.540;2023-07-31T03:44:51;22.10;88.90
40932;DHT22;36257;46.052;12.540;2023-07-31T03:47:16;22.10;89.00
40932;DHT22;36257;46.052;12.540;2023-07-31T03:49:42;22.10;89.10
40932;DHT22;36257;46.052;12.540;2023-07-31T03:52:07;22.00;89.50
40932;DHT22;36257;46.052;12.540;2023-07-31T03:54:33;21.90;89.80
40932;DHT22;36257;46.052;12.540;2023-07-31T03:56:59;21.90;90.40
40932;DHT22;36257;46.052;12.540;2023-07-31T03:59:24;21.80;91.40
40932;DHT22;36257;46.052;12.540;2023-07-31T04:01:50;21.60;92.00
40932;DHT22;36257;46.052;12.540;2023-07-31T04:04:15;21.60;91.90
40932;DHT22;36257;46.052;12.540;2023-07-31T04:06:41;21.50;91.90
40932;DHT22;36257;46.052;12.540;2023-07-31T04:09:07;21.40;90.90
40932;DHT22;36257;46.052;12.540;2023-07-31T04:11:32;21.50;89.90
40932;DHT22;36257;46.052;12.540;2023-07-31T04:13:58;21.70;88.90
40932;DHT22;36257;46.052;12.540;2023-07-31T04:16:23;21.90;88.70
40932;DHT22;36257;46.052;12.540;2023-07-31T04:18:49;21.90;88.70
40932;DHT22;36257;46.052;12.540;2023-07-31T04:21:15;21.90;89.10
40932;DHT22;36257;46.052;12.540;2023-07-31T04:23:40;21.90;89.50
40932;DHT22;36257;46.052;12.540;2023-07-31T04:26:06;21.90;89.80
40932;DHT22;36257;46.052;12.540;2023-07-31T04:28:31;21.90;90.40
40932;DHT22;36257;46.052;12.540;2023-07-31T04:30:57;21.90;90.60
40932;DHT22;36257;46.052;12.540;2023-07-31T04:33:23;21.90;90.80
40932;DHT22;36257;46.052;12.540;2023-07-31T04:35:53;21.90;91.10
40932;DHT22;36257;46.052;12.540;2023-07-31T04:38:20;21.80;92.30
40932;DHT22;36257;46.052;12.540;2023-07-31T04:40:46;21.80;92.50
40932;DHT22;36257;46.052;12.540;2023-07-31T04:43:12;21.80;91.30
40932;DHT22;36257;46.052;12.540;2023-07-31T04:45:38;21.90;91.00
40932;DHT22;36257;46.052;12.540;2023-07-31T04:48:03;22.10;90.30
40932;DHT22;36257;46.052;12.540;2023-07-31T04:50:29;22.20;90.70
40932;DHT22;36257;46.052;12.540;2023-07-31T04:52:56;22.20;91.10
40932;DHT22;36257;46.052;12.540;2023-07-31T04:55:22;22.30;91.30
40932;DHT22;36257;46.052;12.540;2023-07-31T04:57:47;22.30;91.30
40932;DHT22;36257;46.052;12.540;2023-07-31T05:00:13;22.40;92.20
40932;DHT22;36257;46.052;12.540;2023-07-31T05:02:39;22.40;91.50
40932;DHT22;36257;46.052;12.540;2023-07-31T05:05:04;22.50;90.90
40932;DHT22;36257;46.052;12.540;2023-07-31T05:07:30;22.60;91.40
40932;DHT22;36257;46.052;12.540;2023-07-31T05:09:56;22.70;91.30
40932;DHT22;36257;46.052;12.540;2023-07-31T05:12:21;22.80;91.10
40932;DHT22;36257;46.052;12.540;2023-07-31T05:14:47;22.90;91.30
40932;DHT22;36257;46.052;12.540;2023-07-31T05:17:12;22.90;90.60
40932;DHT22;36257;46.052;12.540;2023-07-31T05:19:38;23.00;90.70
40932;DHT22;36257;46.052;12.540;2023-07-31T05:22:04;23.20;90.40
40932;DHT22;36257;46.052;12.540;2023-07-31T05:24:30;23.30;90.10
40932;DHT22;36257;46.052;12.540;2023-07-31T05:26:55;23.40;90.20
40932;DHT22;36257;46.052;12.540;2023-07-31T05:29:21;23.50;91.00
40932;DHT22;36257;46.052;12.540;2023-07-31T05:31:46;23.70;90.40
40932;DHT22;36257;46.052;12.540;2023-07-31T05:34:12;23.80;90.90
40932;DHT22;36257;46.052;12.540;2023-07-31T05:36:38;24.00;91.00
40932;DHT22;36257;46.052;12.540;2023-07-31T05:39:03;24.30;88.80
40932;DHT22;36257;46.052;12.540;2023-07-31T05:41:32;24.50;89.00
40932;DHT22;36257;46.052;12.540;2023-07-31T05:43:58;24.70;88.20
40932;DHT22;36257;46.052;12.540;2023-07-31T05:46:23;24.90;87.70
40932;DHT22;36257;46.052;12.540;2023-07-31T05:48:49;25.00;87.60
40932;DHT22;36257;46.052;12.540;2023-07-31T05:51:15;25.20;86.60
40932;DHT22;36257;46.052;12.540;2023-07-31T05:53:41;25.40;86.40
40932;DHT22;36257;46.052;12.540;2023-07-31T05:56:07;25.60;86.60
40932;DHT22;36257;46.052;12.540;2023-07-31T05:58:32;25.80;83.20
40932;DHT22;36257;46.052;12.540;2023-07-31T06:00:58;26.00;83.20
40932;DHT22;36257;46.052;12.540;2023-07-31T06:03:23;26.20;82.00
40932;DHT22;36257;46.052;12.540;2023-07-31T06:05:49;26.40;83.30
40932;DHT22;36257;46.052;12.540;2023-07-31T06:08:15;26.40;81.80
40932;DHT22;36257;46.052;12.540;2023-07-31T06:10:41;26.60;82.50
40932;DHT22;36257;46.052;12.540;2023-07-31T06:13:06;26.70;83.60
40932;DHT22;36257;46.052;12.540;2023-07-31T06:15:32;26.80;83.10
40932;DHT22;36257;46.052;12.540;2023-07-31T06:17:57;26.90;83.10
40932;DHT22;36257;46.052;12.540;2023-07-31T06:25:35;27.30;82.30
40932;DHT22;36257;46.052;12.540;2023-07-31T06:30:36;27.40;79.20
40932;DHT22;36257;46.052;12.540;2023-07-31T06:33:02;27.50;79.30
40932;DHT22;36257;46.052;12.540;2023-07-31T06:38:03;27.70;79.70
40932;DHT22;36257;46.052;12.540;2023-07-31T06:40:29;27.90;79.80
40932;DHT22;36257;46.052;12.540;2023-07-31T06:42:55;28.00;76.70
40932;DHT22;36257;46.052;12.540;2023-07-31T06:45:21;28.00;76.90
40932;DHT22;36257;46.052;12.540;2023-07-31T06:47:47;28.10;76.70
40932;DHT22;36257;46.052;12.540;2023-07-31T06:50:13;28.20;76.00
40932;DHT22;36257;46.052;12.540;2023-07-31T06:52:38;28.30;74.10
40932;DHT22;36257;46.052;12.540;2023-07-31T06:55:16;28.30;73.90
40932;DHT22;36257;46.052;12.540;2023-07-31T06:57:46;28.30;73.60
40932;DHT22;36257;46.052;12.540;2023-07-31T07:00:12;28.50;73.60
40932;DHT22;36257;46.052;12.540;2023-07-31T07:02:38;28.50;73.20
40932;DHT22;36257;46.052;12.540;2023-07-31T07:05:04;28.50;71.10
40932;DHT22;36257;46.052;12.540;2023-07-31T07:07:29;28.50;73.10
40932;DHT22;36257;46.052;12.540;2023-07-31T07:09:55;28.60;72.40
40932;DHT22;36257;46.052;12.540;2023-07-31T07:12:21;28.70;72.70
40932;DHT22;36257;46.052;12.540;2023-07-31T07:14:46;28.70;71.10
40932;DHT22;36257;46.052;12.540;2023-07-31T07:17:13;28.80;72.50
40932;DHT22;36257;46.052;12.540;2023-07-31T07:19:42;28.90;73.00
40932;DHT22;36257;46.052;12.540;2023-07-31T07:22:07;29.00;72.20
40932;DHT22;36257;46.052;12.540;2023-07-31T07:24:33;29.10;73.10
40932;DHT22;36257;46.052;12.540;2023-07-31T07:26:59;29.20;70.10
40932;DHT22;36257;46.052;12.540;2023-07-31T07:29:24;29.20;70.50
40932;DHT22;36257;46.052;12.540;2023-07-31T07:31:50;29.00;71.60
40932;DHT22;36257;46.052;12.540;2023-07-31T07:34:16;29.00;72.10
40932;DHT22;36257;46.052;12.540;2023-07-31T07:36:41;28.90;72.30
40932;DHT22;36257;46.052;12.540;2023-07-31T07:39:09;28.90;71.10
40932;DHT22;36257;46.052;12.540;2023-07-31T07:41:35;28.70;72.00
40932;DHT22;36257;46.052;12.540;2023-07-31T07:44:01;28.60;72.60
40932;DHT22;36257;46.052;12.540;2023-07-31T07:46:26;28.60;72.10
40932;DHT22;36257;46.052;12.540;2023-07-31T07:48:52;28.50;74.50
40932;DHT22;36257;46.052;12.540;2023-07-31T07:51:17;28.50;73.70
40932;DHT22;36257;46.052;12.540;2023-07-31T07:53:43;28.50;75.10
40932;DHT22;36257;46.052;12.540;2023-07-31T07:56:09;28.40;72.40
40932;DHT22;36257;46.052;12.540;2023-07-31T07:58:34;28.30;74.30
40932;DHT22;36257;46.052;12.540;2023-07-31T08:01:00;28.20;73.10
40932;DHT22;36257;46.052;12.540;2023-07-31T08:03:25;28.20;76.20
40932;DHT22;36257;46.052;12.540;2023-07-31T08:05:51;28.20;75.20
40932;DHT22;36257;46.052;12.540;2023-07-31T08:08:17;28.20;75.20
40932;DHT22;36257;46.052;12.540;2023-07-31T08:10:43;28.20;75.60
40932;DHT22;36257;46.052;12.540;2023-07-31T08:13:11;28.20;75.90
40932;DHT22;36257;46.052;12.540;2023-07-31T08:15:37;28.40;76.70
40932;DHT22;36257;46.052;12.540;2023-07-31T08:18:03;28.50;76.80
40932;DHT22;36257;46.052;12.540;2023-07-31T08:20:28;28.50;75.00
40932;DHT22;36257;46.052;12.540;2023-07-31T08:22:54;28.40;74.80
40932;DHT22;36257;46.052;12.540;2023-07-31T08:25:19;28.20;74.20
40932;DHT22;36257;46.052;12.540;2023-07-31T08:27:45;28.20;74.90
40932;DHT22;36257;46.052;12.540;2023-07-31T08:30:12;28.20;74.20
40932;DHT22;36257;46.052;12.540;2023-07-31T08:32:37;28.20;75.30
40932;DHT22;36257;46.052;12.540;2023-07-31T08:35:03;28.30;75.10
40932;DHT22;36257;46.052;12.540;2023-07-31T08:37:29;28.40;75.70
40932;DHT22;36257;46.052;12.540;2023-07-31T08:39:55;28.40;75.10
40932;DHT22;36257;46.052;12.540;2023-07-31T08:42:21;28.50;73.80
40932;DHT22;36257;46.052;12.540;2023-07-31T08:44:47;28.60;74.50
40932;DHT22;36257;46.052;12.540;2023-07-31T08:47:14;28.60;71.60
40932;DHT22;36257;46.052;12.540;2023-07-31T08:49:42;28.60;75.90
40932;DHT22;36257;46.052;12.540;2023-07-31T08:52:08;28.70;74.90
40932;DHT22;36257;46.052;12.540;2023-07-31T08:54:35;28.80;75.60
40932;DHT22;36257;46.052;12.540;2023-07-31T08:57:01;28.90;74.60
40932;DHT22;36257;46.052;12.540;2023-07-31T08:59:31;29.00;76.00
40932;DHT22;36257;46.052;12.540;2023-07-31T14:08:06;31.70;68.90
40932;DHT22;36257;46.052;12.540;2023-07-31T14:10:32;31.50;70.20
40932;DHT22;36257;46.052;12.540;2023-07-31T14:12:58;31.50;71.10
40932;DHT22;36257;46.052;12.540;2023-07-31T14:15:23;31.40;71.50
40932;DHT22;36257;46.052;12.540;2023-07-31T14:17:49;31.50;72.10
40932;DHT22;36257;46.052;12.540;2023-07-31T14:20:15;31.40;70.10
40932;DHT22;36257;46.052;12.540;2023-07-31T14:22:40;31.40;70.90
40932;DHT22;36257;46.052;12.540;2023-07-31T14:25:06;31.60;70.10
40932;DHT22;36257;46.052;12.540;2023-07-31T14:27:32;31.80;69.00
40932;DHT22;36257;46.052;12.540;2023-07-31T14:29:58;31.80;69.70
40932;DHT22;36257;46.052;12.540;2023-07-31T14:32:23;31.70;68.60
40932;DHT22;36257;46.052;12.540;2023-07-31T14:34:51;31.80;69.00
40932;DHT22;36257;46.052;12.540;2023-07-31T14:37:16;31.80;70.20
40932;DHT22;36257;46.052;12.540;2023-07-31T14:39:42;31.80;69.20
40932;DHT22;36257;46.052;12.540;2023-07-31T14:42:08;31.90;69.90
40932;DHT22;36257;46.052;12.540;2023-07-31T14:44:34;31.90;70.70
40932;DHT22;36257;46.052;12.540;2023-07-31T14:47:00;32.00;68.60
40932;DHT22;36257;46.052;12.540;2023-07-31T14:49:25;32.00;67.40
40932;DHT22;36257;46.052;12.540;2023-07-31T14:51:53;32.10;68.30
40932;DHT22;36257;46.052;12.540;2023-07-31T14:54:19;32.00;68.30
40932;DHT22;36257;46.052;12.540;2023-07-31T14:56:45;31.90;68.70
40932;DHT22;36257;46.052;12.540;2023-07-31T14:59:11;31.50;67.60
40932;DHT22;36257;46.052;12.540;2023-07-31T15:01:37;31.60;69.10
40932;DHT22;36257;46.052;12.540;2023-07-31T15:04:03;31.50;68.80
40932;DHT22;36257;46.052;12.540;2023-07-31T15:06:30;31.50;70.30
40932;DHT22;36257;46.052;12.540;2023-07-31T15:08:55;31.50;69.30
40932;DHT22;36257;46.052;12.540;2023-07-31T15:11:22;31.60;68.90
40932;DHT22;36257;46.052;12.540;2023-07-31T15:13:47;31.50;69.10
40932;DHT22;36257;46.052;12.540;2023-07-31T15:16:13;31.40;70.30
40932;DHT22;36257;46.052;12.540;2023-07-31T15:18:39;31.30;69.00
40932;DHT22;36257;46.052;12.540;2023-07-31T15:21:04;31.30;69.70
40932;DHT22;36257;46.052;12.540;2023-07-31T15:23:32;31.20;69.90
40932;DHT22;36257;46.052;12.540;2023-07-31T15:25:57;31.20;69.30
40932;DHT22;36257;46.052;12.540;2023-07-31T15:28:23;31.20;70.80
40932;DHT22;36257;46.052;12.540;2023-07-31T15:30:48;31.10;71.70
40932;DHT22;36257;46.052;12.540;2023-07-31T15:33:15;31.10;71.50
40932;DHT22;36257;46.052;12.540;2023-07-31T15:35:41;31.00;72.10
40932;DHT22;36257;46.052;12.540;2023-07-31T15:38:07;30.80;71.30
40932;DHT22;36257;46.052;12.540;2023-07-31T15:40:32;30.70;71.10
40932;DHT22;36257;46.052;12.540;2023-07-31T15:53:33;30.70;74.60
40932;DHT22;36257;46.052;12.540;2023-07-31T16:21:23;30.00;76.00
40932;DHT22;36257;46.052;12.540;2023-07-31T16:23:50;30.00;76.60
40932;DHT22;36257;46.052;12.540;2023-07-31T16:26:16;30.00;74.40
40932;DHT22;36257;46.052;12.540;2023-07-31T16:28:42;30.00;75.20
40932;DHT22;36257;46.052;12.540;2023-07-31T16:31:08;30.00;76.60
40932;DHT22;36257;46.052;12.540;2023-07-31T16:33:33;30.00;78.40
40932;DHT22;36257;46.052;12.540;2023-07-31T16:35:59;30.00;79.00
40932;DHT22;36257;46.052;12.540;2023-07-31T16:38:25;30.00;79.80
40932;DHT22;36257;46.052;12.540;2023-07-31T16:40:51;29.90;78.20
40932;DHT22;36257;46.052;12.540;2023-07-31T16:43:17;29.90;79.10
40932;DHT22;36257;46.052;12.540;2023-07-31T16:45:43;29.80;79.00
40932;DHT22;36257;46.052;12.540;2023-07-31T16:48:09;29.90;79.10
40932;DHT22;36257;46.052;12.540;2023-07-31T16:50:35;29.80;80.20
40932;DHT22;36257;46.052;12.540;2023-07-31T16:53:01;29.70;81.30
40932;DHT22;36257;46.052;12.540;2023-07-31T16:55:26;29.60;83.90
40932;DHT22;36257;46.052;12.540;2023-07-31T16:57:54;29.60;83.30
40932;DHT22;36257;46.052;12.540;2023-07-31T17:00:21;29.50;82.90
40932;DHT22;36257;46.052;12.540;2023-07-31T17:02:47;29.40;83.20
40932;DHT22;36257;46.052;12.540;2023-07-31T17:05:13;29.30;83.00
40932;DHT22;36257;46.052;12.540;2023-07-31T17:07:39;29.10;83.50
40932;DHT22;36257;46.052;12.540;2023-07-31T17:10:05;29.00;84.00
40932;DHT22;36257;46.052;12.540;2023-07-31T17:12:31;29.00;83.70
40932;DHT22;36257;46.052;12.540;2023-07-31T17:14:57;28.90;82.40
40932;DHT22;36257;46.052;12.540;2023-07-31T17:17:23;28.90;82.10
40932;DHT22;36257;46.052;12.540;2023-07-31T17:19:49;28.90;82.00
40932;DHT22;36257;46.052;12.540;2023-07-31T17:22:15;28.90;80.70
40932;DHT22;36257;46.052;12.540;2023-07-31T17:24:41;29.00;79.70
40932;DHT22;36257;46.052;12.540;2023-07-31T17:27:07;29.00;79.90
40932;DHT22;36257;46.052;12.540;2023-07-31T17:29:32;28.70;81.40
40932;DHT22;36257;46.052;12.540;2023-07-31T17:31:58;28.60;83.10
40932;DHT22;36257;46.052;12.540;2023-07-31T17:34:24;28.50;83.20
40932;DHT22;36257;46.052;12.540;2023-07-31T17:36:50;28.40;83.00
40932;DHT22;36257;46.052;12.540;2023-07-31T17:39:16;28.40;82.40
40932;DHT22;36257;46.052;12.540;2023-07-31T17:41:42;28.40;82.40
40932;DHT22;36257;46.052;12.540;2023-07-31T17:44:08;28.40;81.30
40932;DHT22;36257;46.052;12.540;2023-07-31T17:46:34;28.30;81.60
40932;DHT22;36257;46.052;12.540;2023-07-31T17:49:00;28.10;82.60
40932;DHT22;36257;46.052;12.540;2023-07-31T17:51:25;28.10;83.30
40932;DHT22;36257;46.052;12.540;2023-07-31T17:53:51;28.00;83.90
40932;DHT22;36257;46.052;12.540;2023-07-31T17:56:17;27.90;85.00
40932;DHT22;36257;46.052;12.540;2023-07-31T17:58:42;27.80;85.20
40932;DHT22;36257;46.052;12.540;2023-07-31T18:01:08;27.80;85.20
40932;DHT22;36257;46.052;12.540;2023-07-31T18:03:34;27.80;85.40
40932;DHT22;36257;46.052;12.540;2023-07-31T18:06:00;27.70;85.30
40932;DHT22;36257;46.052;12.540;2023-07-31T18:08:26;27.60;85.90
40932;DHT22;36257;46.052;12.540;2023-07-31T18:10:51;27.50;85.70
40932;DHT22;36257;46.052;12.540;2023-07-31T18:13:17;27.40;86.40
40932;DHT22;36257;46.052;12.540;2023-07-31T18:15:44;27.30;86.80
40932;DHT22;36257;46.052;12.540;2023-07-31T18:18:10;27.10;86.60
40932;DHT22;36257;46.052;12.540;2023-07-31T18:20:36;27.00;86.70
40932;DHT22;36257;46.052;12.540;2023-07-31T18:23:02;26.90;86.90
40932;DHT22;36257;46.052;12.540;2023-07-31T18:25:27;26.80;86.90
40932;DHT22;36257;46.052;12.540;2023-07-31T18:27:53;26.80;87.00
40932;DHT22;36257;46.052;12.540;2023-07-31T18:30:19;26.80;86.60
40932;DHT22;36257;46.052;12.540;2023-07-31T18:32:45;26.60;86.50
40932;DHT22;36257;46.052;12.540;2023-07-31T18:35:10;26.50;86.90
40932;DHT22;36257;46.052;12.540;2023-07-31T18:37:36;26.40;87.10
40932;DHT22;36257;46.052;12.540;2023-07-31T18:40:02;26.30;87.50
40932;DHT22;36257;46.052;12.540;2023-07-31T18:42:28;26.20;87.80
40932;DHT22;36257;46.052;12.540;2023-07-31T18:44:54;26.20;87.60
40932;DHT22;36257;46.052;12.540;2023-07-31T18:47:19;26.10;87.20
40932;DHT22;36257;46.052;12.540;2023-07-31T18:49:45;26.00;87.30
40932;DHT22;36257;46.052;12.540;2023-07-31T18:52:11;25.90;87.40
40932;DHT22;36257;46.052;12.540;2023-07-31T18:54:36;25.90;87.10
40932;DHT22;36257;46.052;12.540;2023-07-31T18:57:02;25.80;87.20
40932;DHT22;36257;46.052;12.540;2023-07-31T18:59:28;25.80;87.90
40932;DHT22;36257;46.052;12.540;2023-07-31T19:01:53;25.70;87.90
40932;DHT22;36257;46.052;12.540;2023-07-31T19:04:19;25.70;87.50
40932;DHT22;36257;46.052;12.540;2023-07-31T19:06:45;25.70;87.40
40932;DHT22;36257;46.052;12.540;2023-07-31T19:09:11;25.70;87.40
40932;DHT22;36257;46.052;12.540;2023-07-31T19:11:37;25.60;87.30
40932;DHT22;36257;46.052;12.540;2023-07-31T19:14:05;25.50;86.80
40932;DHT22;36257;46.052;12.540;2023-07-31T19:16:30;25.50;86.70
40932;DHT22;36257;46.052;12.540;2023-07-31T19:18:57;25.50;86.60
40932;DHT22;36257;46.052;12.540;2023-07-31T19:21:24;25.50;86.50
40932;DHT22;36257;46.052;12.540;2023-07-31T19:23:49;25.40;86.80
40932;DHT22;36257;46.052;12.540;2023-07-31T19:26:17;25.30;86.70
40932;DHT22;36257;46.052;12.540;2023-07-31T19:28:43;25.40;86.60
40932;DHT22;36257;46.052;12.540;2023-07-31T19:31:08;25.30;87.00
40932;DHT22;36257;46.052;12.540;2023-07-31T19:33:34;25.30;86.80
40932;DHT22;36257;46.052;12.540;2023-07-31T19:36:00;25.20;86.90
40932;DHT22;36257;46.052;12.540;2023-07-31T19:38:26;25.20;87.20
40932;DHT22;36257;46.052;12.540;2023-07-31T19:40:52;25.10;87.40
40932;DHT22;36257;46.052;12.540;2023-07-31T19:43:18;25.10;87.00
40932;DHT22;36257;46.052;12.540;2023-07-31T19:45:44;25.10;87.40
40932;DHT22;36257;46.052;12.540;2023-07-31T19:48:10;25.10;87.00
40932;DHT22;36257;46.052;12.540;2023-07-31T19:50:36;25.10;86.60
40932;DHT22;36257;46.052;12.540;2023-07-31T19:53:02;25.10;86.70
40932;DHT22;36257;46.052;12.540;2023-07-31T19:55:27;25.10;87.00
40932;DHT22;36257;46.052;12.540;2023-07-31T19:57:55;25.10;87.00
40932;DHT22;36257;46.052;12.540;2023-07-31T20:00:20;25.10;86.80
40932;DHT22;36257;46.052;12.540;2023-07-31T20:02:46;25.10;86.90
40932;DHT22;36257;46.052;12.540;2023-07-31T20:05:12;25.10;86.70
40932;DHT22;36257;46.052;12.540;2023-07-31T20:07:37;25.10;86.50
40932;DHT22;36257;46.052;12.540;2023-07-31T20:10:03;25.00;86.00
40932;DHT22;36257;46.052;12.540;2023-07-31T20:12:29;25.10;86.60
40932;DHT22;36257;46.052;12.540;2023-07-31T20:14:58;25.10;86.30
40932;DHT22;36257;46.052;12.540;2023-07-31T20:17:24;25.00;86.40
40932;DHT22;36257;46.052;12.540;2023-07-31T20:19:53;25.00;86.80
40932;DHT22;36257;46.052;12.540;2023-07-31T20:22:19;25.00;86.90
40932;DHT22;36257;46.052;12.540;2023-07-31T20:24:44;25.00;87.00
40932;DHT22;36257;46.052;12.540;2023-07-31T20:27:10;24.90;87.20
40932;DHT22;36257;46.052;12.540;2023-07-31T20:29:36;25.00;87.10
40932;DHT22;36257;46.052;12.540;2023-07-31T20:32:06;25.00;86.90
40932;DHT22;36257;46.052;12.540;2023-07-31T20:34:31;24.90;86.60
40932;DHT22;36257;46.052;12.540;2023-07-31T20:36:57;25.00;86.70
40932;DHT22;36257;46.052;12.540;2023-07-31T20:39:23;25.00;86.10
40932;DHT22;36257;46.052;12.540;2023-07-31T20:41:48;25.10;86.30
40932;DHT22;36257;46.052;12.540;2023-07-31T20:44:15;25.10;86.80
40932;DHT22;36257;46.052;12.540;2023-07-31T20:46:40;25.10;87.00
40932;DHT22;36257;46.052;12.540;2023-07-31T20:49:06;25.00;87.60
40932;DHT22;36257;46.052;12.540;2023-07-31T20:51:32;24.90;87.80
40932;DHT22;36257;46.052;12.540;2023-07-31T20:54:00;24.90;88.00
40932;DHT22;36257;46.052;12.540;2023-07-31T20:56:25;24.90;88.20
40932;DHT22;36257;46.052;12.540;2023-07-31T20:58:51;24.80;88.40
40932;DHT22;36257;46.052;12.540;2023-07-31T21:01:16;24.80;88.60
40932;DHT22;36257;46.052;12.540;2023-07-31T21:03:43;24.80;89.50